Time;durP1;ratioP1;P1;durP2;ratioP2;P2;SDS_P1;SDS_P2;PMS_P1;PMS_P2;Temp;Humidity;BMP_temperature;BMP_pressure;BME280_temperature;BME280_humidity;BME280_pressure;Samples;Min_cycle;Max_cycle;Signal;HPM_P1;HPM_P2
2022/03/15 00:00:00;;;;;;;6.55;4.53;;;;;;;-1.09;76.33;61887.34;5020964;28;20207;-77
2022/03/15 00:02:28;;;;;;;5.93;4.25;;;;;;;-1.13;76.71;61881.25;5024060;28;20313;-77
2022/03/15 00:04:55;;;;;;;6.55;5.07;;;;;;;-1.19;76.49;61878.13;5026962;28;20249;-77
2022/03/15 00:07:23;;;;;;;6.72;5.10;;;;;;;-1.19;76.62;61880.09;5026752;28;20277;-77
2022/03/15 00:09:52;;;;;;;7.90;5.95;;;;;;;-1.24;77.26;61875.50;5030164;28;20217;-77
2022/03/15 00:12:19;;;;;;;11.05;6.15;;;;;;;-1.32;77.86;61859.84;5029772;28;20271;-77
2022/03/15 00:14:46;;;;;;;13.38;6.47;;;;;;;-1.32;77.91;61864.31;5026729;28;20269;-77
2022/03/15 00:17:13;;;;;;;8.32;5.82;;;;;;;-1.27;77.66;61877.44;5026156;28;20230;-77
2022/03/15 00:19:40;;;;;;;7.22;5.82;;;;;;;-1.35;77.53;61861.75;5024583;28;20213;-76
2022/03/15 00:22:08;;;;;;;9.85;6.53;;;;;;;-1.38;78.29;61863.66;5016542;28;20246;-77
2022/03/15 00:24:35;;;;;;;7.45;6.55;;;;;;;-1.38;78.30;61855.69;5025459;28;20380;-77
2022/03/15 00:27:03;;;;;;;8.00;6.40;;;;;;;-1.41;78.21;61853.13;5025604;28;20223;-76
2022/03/15 00:29:31;;;;;;;8.80;6.57;;;;;;;-1.36;77.77;61860.22;5026579;28;20210;-76
2022/03/15 00:31:58;;;;;;;10.30;6.45;;;;;;;-1.25;77.14;61871.47;5025511;28;20222;-76
2022/03/15 00:34:25;;;;;;;9.82;6.00;;;;;;;-1.32;77.13;61864.81;5027292;28;20211;-78
2022/03/15 00:36:53;;;;;;;8.77;4.90;;;;;;;-1.30;76.43;61866.34;5026650;28;20246;-76
2022/03/15 00:39:20;;;;;;;12.27;6.38;;;;;;;-1.27;75.48;61872.44;5040844;28;20266;-77
2022/03/15 00:41:48;;;;;;;8.07;5.93;;;;;;;-1.20;75.67;61879.59;5035103;28;20223;-79
2022/03/15 00:44:16;;;;;;;11.23;5.93;;;;;;;-1.26;77.10;61867.97;5030809;28;20221;-77
2022/03/15 00:46:44;;;;;;;11.73;6.18;;;;;;;-1.30;76.87;61866.34;5027728;28;20469;-79
2022/03/15 00:49:11;;;;;;;12.93;7.00;;;;;;;-1.33;77.03;61863.78;5024611;28;20237;-77
2022/03/15 00:51:38;;;;;;;7.07;5.88;;;;;;;-1.35;77.29;61861.25;5029146;28;20297;-77
2022/03/15 00:54:05;;;;;;;7.57;5.78;;;;;;;-1.36;77.65;61858.22;5026251;28;20214;-77
2022/03/15 00:56:32;;;;;;;6.57;5.72;;;;;;;-1.37;77.94;61859.19;5025172;28;20202;-77
2022/03/15 00:58:58;;;;;;;8.73;5.50;;;;;;;-1.41;78.35;61862.59;5032949;28;20194;-76
2022/03/15 01:01:27;;;;;;;6.28;5.25;;;;;;;-1.40;78.04;61856.13;5028020;28;20199;-76
2022/03/15 01:03:54;;;;;;;5.00;4.28;;;;;;;-1.47;78.33;61848.97;5024612;28;20207;-76
2022/03/15 01:06:20;;;;;;;5.05;4.45;;;;;;;-1.52;78.75;61841.84;5025586;28;20284;-76
2022/03/15 01:08:47;;;;;;;5.90;4.47;;;;;;;-1.54;78.96;61844.81;5023800;28;20230;-76
2022/03/15 01:11:14;;;;;;;7.97;6.03;;;;;;;-1.56;78.63;61847.75;5026852;28;20198;-76
2022/03/15 01:13:42;;;;;;;8.02;6.05;;;;;;;-1.65;78.88;61831.06;5024746;28;20280;-78
2022/03/15 01:16:09;;;;;;;9.20;5.57;;;;;;;-1.52;78.42;61843.84;5024631;28;20217;-76
2022/03/15 01:18:37;;;;;;;7.90;5.10;;;;;;;-1.60;78.36;61838.66;5025916;28;20302;-78
2022/03/15 01:21:04;;;;;;;10.63;6.88;;;;;;;-1.63;79.46;61835.59;5023572;28;20210;-77
2022/03/15 01:23:31;;;;;;;10.77;6.35;;;;;;;-1.54;78.27;61846.78;5025542;28;20285;-77
2022/03/15 01:25:58;;;;;;;10.80;6.25;;;;;;;-1.53;78.01;61845.31;5024764;28;20233;-78
2022/03/15 01:28:26;;;;;;;10.05;5.88;;;;;;;-1.50;76.96;61841.41;5025789;28;20527;-76
2022/03/15 01:30:53;;;;;;;6.93;5.03;;;;;;;-1.47;76.25;61849.47;5025160;28;20229;-77
2022/03/15 01:33:20;;;;;;;5.28;4.75;;;;;;;-1.39;75.27;61860.16;5030898;28;20561;-77
2022/03/15 01:35:48;;;;;;;6.28;4.45;;;;;;;-1.33;74.81;61868.78;5023861;28;20206;-77
2022/03/15 01:38:15;;;;;;;7.47;5.32;;;;;;;-1.30;74.02;61864.38;5023965;28;20232;-77
2022/03/15 01:40:43;;;;;;;6.40;4.75;;;;;;;-1.22;73.33;61874.53;5022766;28;20191;-76
2022/03/15 01:43:09;;;;;;;5.10;4.60;;;;;;;-1.19;72.80;61880.63;5024294;28;20408;-76
2022/03/15 01:45:39;;;;;;;7.95;5.38;;;;;;;-1.10;71.85;61886.31;5024051;28;20531;-77
2022/03/15 01:48:08;;;;;;;6.85;4.38;;;;;;;-1.20;71.40;61871.59;5025025;28;20227;-76
2022/03/15 01:50:35;;;;;;;5.03;4.15;;;;;;;-1.19;70.17;61880.09;5024270;28;20210;-77
2022/03/15 01:53:04;;;;;;;4.88;4.45;;;;;;;-1.22;70.14;61877.03;5031675;28;20395;-76
2022/03/15 01:55:31;;;;;;;6.55;4.85;;;;;;;-1.22;69.63;61880.06;5036362;28;20199;-76
2022/03/15 01:57:58;;;;;;;9.13;5.30;;;;;;;-1.20;69.75;61884.59;5030805;28;20245;-76
2022/03/15 02:00:25;;;;;;;8.55;4.20;;;;;;;-1.16;69.40;61883.69;5025353;28;20450;-76
2022/03/15 02:02:53;;;;;;;4.18;3.63;;;;;;;-1.20;68.62;61876.59;5026376;28;20227;-77
2022/03/15 02:05:20;;;;;;;3.92;3.30;;;;;;;-1.19;68.56;61878.13;5023203;28;20257;-76
2022/03/15 02:07:47;;;;;;;4.90;3.53;;;;;;;-1.15;67.36;61889.19;5024650;28;20554;-77
2022/03/15 02:10:15;;;;;;;4.10;3.30;;;;;;;-1.12;67.07;61892.25;5031920;28;20225;-76
2022/03/15 02:12:42;;;;;;;4.13;2.97;;;;;;;-0.95;66.38;61902.19;5024662;28;20237;-77
2022/03/15 02:15:10;;;;;;;4.75;3.38;;;;;;;-0.99;66.24;61898.09;5025012;28;20222;-77
2022/03/15 02:17:37;;;;;;;4.07;3.15;;;;;;;-1.06;67.94;61895.41;5032826;28;20222;-76
2022/03/15 02:20:10;;;;;;;3.30;3.00;;;;;;;-1.11;68.00;61888.31;5034900;28;20457;-75
2022/03/15 02:22:37;;;;;;;4.55;3.65;;;;;;;-1.14;68.72;61887.22;5024973;28;20265;-76
2022/03/15 02:25:06;;;;;;;6.25;4.18;;;;;;;-1.14;68.52;61885.25;5023818;28;20190;-78
2022/03/15 02:27:33;;;;;;;4.72;4.18;;;;;;;-1.12;68.47;61884.78;5024221;28;20219;-77
2022/03/15 02:30:00;;;;;;;4.40;3.65;;;;;;;-1.14;70.04;61882.75;5031987;28;20240;-77
2022/03/15 02:32:27;;;;;;;6.90;4.20;;;;;;;-1.24;69.59;61878.00;5024337;28;20226;-77
2022/03/15 02:34:54;;;;;;;4.25;3.35;;;;;;;-1.30;70.91;61869.38;5023566;28;20444;-76
2022/03/15 02:37:24;;;;;;;6.13;3.67;;;;;;;-1.36;71.66;61865.72;5024268;28;20234;-78
2022/03/15 02:39:51;;;;;;;6.53;4.03;;;;;;;-1.42;71.97;61854.09;5024249;28;20428;-77
2022/03/15 02:42:19;;;;;;;5.38;4.28;;;;;;;-1.49;72.56;61847.44;5024391;28;20238;-77
2022/03/15 02:44:46;;;;;;;4.88;3.53;;;;;;;-1.55;73.32;61840.78;5025809;28;20210;-77
2022/03/15 02:47:13;;;;;;;4.72;3.78;;;;;;;-1.55;74.22;61840.78;5033212;28;20238;-77
2022/03/15 02:49:40;;;;;;;6.93;4.28;;;;;;;-1.66;74.40;61830.03;5025055;28;20215;-76
2022/03/15 02:52:09;;;;;;;7.57;4.38;;;;;;;-1.71;75.04;61827.41;5023218;28;20222;-77
2022/03/15 02:54:40;;;;;;;5.45;4.25;;;;;;;-1.76;75.43;61819.31;5024352;28;20209;-77
2022/03/15 02:57:08;;;;;;;4.68;4.10;;;;;;;-1.81;76.19;61816.69;5026227;28;20226;-77
2022/03/15 02:59:35;;;;;;;12.05;6.15;;;;;;;-1.78;75.91;61817.25;5034022;28;20268;-77
2022/03/15 03:02:03;;;;;;;7.32;5.72;;;;;;;-1.79;75.61;61818.72;5027269;28;20437;-78
2022/03/15 03:04:29;;;;;;;11.52;6.18;;;;;;;-1.86;75.83;61812.06;5028114;28;20245;-77
2022/03/15 03:06:58;;;;;;;11.73;6.45;;;;;;;-1.82;75.14;61815.66;5027403;28;20243;-76
2022/03/15 03:09:25;;;;;;;6.50;5.50;;;;;;;-1.82;75.18;61818.66;5028178;28;20226;-76
2022/03/15 03:11:53;;;;;;;9.55;6.20;;;;;;;-1.83;74.62;61817.63;5027925;28;20254;-77
2022/03/15 03:14:21;;;;;;;6.57;5.05;;;;;;;-1.80;74.56;61813.22;5027269;28;20249;-77
2022/03/15 03:16:48;;;;;;;4.05;3.72;;;;;;;-1.76;72.09;61821.78;5027748;28;20231;-77
2022/03/15 03:19:15;;;;;;;5.78;4.25;;;;;;;-1.83;71.76;61814.63;5040109;28;20195;-77
2022/03/15 03:21:42;;;;;;;4.95;3.70;;;;;;;-1.85;72.34;61820.59;5027836;28;20583;-76
2022/03/15 03:24:09;;;;;;;4.15;3.53;;;;;;;-1.91;71.95;61806.97;5028109;28;20199;-77
2022/03/15 03:26:39;;;;;;;3.95;3.63;;;;;;;-1.89;72.22;61806.50;5027789;28;20253;-77
2022/03/15 03:29:10;;;;;;;3.47;3.17;;;;;;;-1.93;71.94;61804.91;5037207;28;20194;-76
2022/03/15 03:31:37;;;;;;;6.18;3.35;;;;;;;-1.92;71.71;61800.94;5039602;28;20248;-77
2022/03/15 03:34:05;;;;;;;4.00;3.17;;;;;;;-1.96;70.86;61799.34;5028067;28;20210;-77
2022/03/15 03:36:34;;;;;;;3.25;2.95;;;;;;;-1.99;71.59;61796.28;5029841;28;20202;-76
2022/03/15 03:39:01;;;;;;;4.55;3.30;;;;;;;-1.87;70.66;61808.03;5028154;28;20351;-77
2022/03/15 03:41:28;;;;;;;5.47;3.70;;;;;;;-1.95;70.42;61810.34;5028577;28;20233;-77
2022/03/15 03:43:55;;;;;;;4.10;3.35;;;;;;;-1.99;70.15;61800.75;5025806;28;20226;-76
2022/03/15 03:46:23;;;;;;;5.13;4.32;;;;;;;-2.00;70.38;61802.22;5027501;28;20245;-76
2022/03/15 03:48:52;;;;;;;10.48;6.63;;;;;;;-2.03;70.93;61792.19;5026416;28;20446;-80
2022/03/15 03:51:19;;;;;;;13.90;8.35;;;;;;;-2.02;73.52;61795.69;5026235;28;20213;-78
2022/03/15 03:53:47;;;;;;;24.67;11.02;;;;;;;-2.07;75.30;61787.59;5027945;28;20627;-77
2022/03/15 03:56:13;;;;;;;19.13;10.88;;;;;;;-2.13;76.88;61786.94;5032774;28;20206;-76
2022/03/15 03:58:43;;;;;;;18.40;10.38;;;;;;;-2.12;78.27;61782.97;5031647;28;20253;-77
2022/03/15 04:01:13;;;;;;;12.90;7.75;;;;;;;-2.10;78.01;61787.00;5028296;28;20229;-77
2022/03/15 04:04:05;;;;;;;17.17;9.18;;;;;;;-2.22;78.08;61779.72;5037986;28;20218;-75
2022/03/15 04:06:32;;;;;;;11.10;7.55;;;;;;;-2.33;78.45;61764.03;5029430;28;20353;-76
2022/03/15 04:09:00;;;;;;;10.75;7.32;;;;;;;-2.33;78.25;61762.03;5027384;28;20206;-76
2022/03/15 04:11:31;;;;;;;13.77;9.80;;;;;;;-2.38;79.65;61764.38;5038900;28;20405;-76
2022/03/15 04:13:59;;;;;;;17.85;11.10;;;;;;;-2.41;82.35;61753.84;5033068;28;20191;-77
2022/03/15 04:16:28;;;;;;;16.33;11.02;;;;;;;-2.42;82.47;61757.81;5033446;28;20226;-75
2022/03/15 04:18:57;;;;;;;16.95;10.95;;;;;;;-2.41;82.85;61758.84;5028619;28;20210;-76
2022/03/15 04:21:24;;;;;;;18.90;11.98;;;;;;;-2.41;83.21;61753.84;5029344;28;20293;-77
2022/03/15 04:23:52;;;;;;;20.55;12.15;;;;;;;-2.37;84.09;61762.41;5035022;28;20194;-76
2022/03/15 04:26:20;;;;;;;21.65;13.20;;;;;;;-2.41;85.09;61751.34;5033118;28;20250;-77
2022/03/15 04:28:52;;;;;;;29.80;13.88;;;;;;;-2.49;85.69;61742.66;5034790;28;20207;-76
2022/03/15 04:31:21;;;;;;;23.30;13.40;;;;;;;-2.52;86.90;61739.59;5028927;28;20207;-77
2022/03/15 04:33:48;;;;;;;26.08;14.40;;;;;;;-2.46;88.36;61751.22;5019183;28;20195;-77
2022/03/15 04:36:17;;;;;;;29.23;13.90;;;;;;;-2.51;88.71;61743.63;5035234;28;20198;-76
2022/03/15 04:38:44;;;;;;;27.60;15.52;;;;;;;-2.56;89.18;61738.53;5033997;28;20298;-77
2022/03/15 04:41:11;;;;;;;29.35;13.55;;;;;;;-2.63;89.47;61738.31;5029302;28;20206;-77
2022/03/15 04:43:39;;;;;;;22.25;13.95;;;;;;;-2.68;89.32;61725.75;5028642;28;20225;-76
2022/03/15 04:46:06;;;;;;;26.35;13.85;;;;;;;-2.69;89.39;61727.72;5026701;28;20227;-77
2022/03/15 04:48:38;;;;;;;21.35;12.25;;;;;;;-2.68;89.85;61730.72;5027184;28;20219;-77
2022/03/15 04:51:05;;;;;;;17.30;9.13;;;;;;;-2.68;89.53;61725.75;5027768;28;20210;-77
2022/03/15 04:53:35;;;;;;;13.32;7.90;;;;;;;-2.68;87.72;61725.75;5029225;28;20230;-77
2022/03/15 04:56:02;;;;;;;10.43;6.38;;;;;;;-2.59;85.74;61732.44;5029939;28;20237;-76
2022/03/15 04:58:29;;;;;;;16.55;5.60;;;;;;;-2.69;84.28;61722.72;5018411;28;20510;-77
2022/03/15 05:00:57;;;;;;;10.30;6.70;;;;;;;-2.73;83.17;61723.63;5030497;28;20274;-76
2022/03/15 05:03:24;;;;;;;9.07;5.55;;;;;;;-2.83;83.50;61718.38;5031273;28;20223;-77
2022/03/15 05:05:51;;;;;;;10.38;6.80;;;;;;;-2.78;83.88;61723.50;5031578;28;20488;-78
2022/03/15 05:08:18;;;;;;;10.93;6.55;;;;;;;-2.70;84.00;61723.69;5031955;28;20238;-77
2022/03/15 05:13:30;;;;;;;6.43;4.97;;;;;;;-2.53;84.28;61749.06;5029393;28;20225;-77
2022/03/15 05:15:57;;;;;;;6.20;4.95;;;;;;;-2.52;83.80;61739.59;5028324;28;20214;-78
2022/03/15 05:18:24;;;;;;;8.68;5.07;;;;;;;-2.42;83.71;61759.78;5026603;28;20539;-79
2022/03/15 05:20:51;;;;;;;8.65;5.10;;;;;;;-2.33;84.00;61767.00;5027086;28;20203;-77
2022/03/15 05:23:18;;;;;;;5.80;4.55;;;;;;;-2.16;81.98;61780.88;5026600;28;20523;-78
2022/03/15 05:25:46;;;;;;;6.00;4.88;;;;;;;-2.06;81.54;61786.13;5027447;28;20268;-77
2022/03/15 05:28:13;;;;;;;9.30;6.53;;;;;;;-1.92;79.89;61802.94;5024852;28;20245;-77
2022/03/15 05:30:40;;;;;;;16.00;7.40;;;;;;;-1.83;79.50;61812.13;5035094;28;20195;-78
2022/03/15 05:33:07;;;;;;;14.23;9.10;;;;;;;-1.76;79.85;61814.31;5026026;28;20274;-78
2022/03/15 05:35:34;;;;;;;16.10;9.95;;;;;;;-1.54;78.69;61841.81;5025533;28;20253;-79
2022/03/15 05:38:01;;;;;;;16.00;8.93;;;;;;;-1.42;79.63;61849.09;5026117;28;20399;-77
2022/03/15 05:40:28;;;;;;;28.23;13.98;;;;;;;-1.30;80.09;61866.88;5024463;28;20237;-76
2022/03/15 05:42:57;;;;;;;21.98;13.57;;;;;;;-1.20;80.05;61887.09;5022635;28;20269;-77
2022/03/15 05:45:24;;;;;;;25.52;13.95;;;;;;;-1.09;80.02;61885.34;5017149;28;20210;-77
2022/03/15 05:47:51;;;;;;;17.85;12.18;;;;;;;-0.92;78.41;61905.25;5022050;28;20235;-78
2022/03/15 05:50:18;;;;;;;16.90;10.20;;;;;;;-0.83;77.70;61916.47;5029827;28;20205;-77
2022/03/15 05:52:45;;;;;;;17.60;11.95;;;;;;;-0.73;77.30;61921.69;5026015;28;20226;-79
2022/03/15 05:55:13;;;;;;;19.55;11.60;;;;;;;-0.57;75.66;61938.59;5028568;28;20195;-79
2022/03/15 05:57:40;;;;;;;20.85;13.35;;;;;;;-0.42;74.92;61958.44;5022586;28;20278;-81
2022/03/15 06:00:11;;;;;;;26.80;15.15;;;;;;;-0.32;73.92;61971.69;5027388;28;20199;-79
2022/03/15 06:02:37;;;;;;;24.73;13.90;;;;;;;-0.28;73.84;61968.31;5028472;28;20226;-79
2022/03/15 06:05:05;;;;;;;26.23;15.75;;;;;;;-0.29;74.27;61964.78;5027116;28;20214;-80
2022/03/15 06:07:32;;;;;;;29.85;15.45;;;;;;;-0.16;75.05;61985.59;5028206;28;20241;-80
2022/03/15 06:09:59;;;;;;;26.33;14.60;;;;;;;-0.04;75.44;61995.41;5027332;28;20202;-80
2022/03/15 06:12:26;;;;;;;30.00;15.65;;;;;;;0.10;75.60;62009.22;5027853;28;20214;-81
2022/03/15 06:14:53;;;;;;;31.73;14.50;;;;;;;0.18;74.82;62016.91;5027868;28;20562;-79
2022/03/15 06:17:21;;;;;;;25.80;14.90;;;;;;;0.28;73.88;62027.66;5027515;28;20215;-80
2022/03/15 06:19:49;;;;;;;25.10;15.07;;;;;;;0.44;73.21;62048.56;5027713;28;20202;-81
2022/03/15 06:22:17;;;;;;;28.48;16.42;;;;;;;0.47;72.31;62049.13;5027912;28;20230;-79
2022/03/15 06:24:44;;;;;;;28.65;15.60;;;;;;;0.64;71.37;62064.06;5028476;28;20499;-79
2022/03/15 06:27:11;;;;;;;27.92;15.77;;;;;;;0.79;70.75;62077.47;5027860;28;20594;-80
2022/03/15 06:29:38;;;;;;;27.60;16.75;;;;;;;0.80;70.69;62083.50;5027259;28;20202;-78
2022/03/15 06:32:05;;;;;;;32.67;17.30;;;;;;;0.87;70.77;62088.16;5028519;28;20269;-76
2022/03/15 06:34:34;;;;;;;30.80;17.48;;;;;;;0.90;70.99;62090.72;5028121;28;20195;-76
2022/03/15 06:37:07;;;;;;;31.20;17.42;;;;;;;1.10;71.13;62114.25;5026773;28;20222;-77
2022/03/15 06:39:35;;;;;;;35.70;17.60;;;;;;;1.26;70.00;62130.16;5028685;28;20202;-75
2022/03/15 06:42:11;;;;;;;32.88;16.98;;;;;;;1.38;69.10;62141.97;5025240;28;20230;-76
2022/03/15 06:44:38;;;;;;;35.90;17.02;;;;;;;1.34;67.42;62135.88;5030219;28;20206;-76
2022/03/15 06:47:10;;;;;;;39.55;16.38;;;;;;;1.40;67.85;62141.50;5028584;28;20238;-77
2022/03/15 06:49:38;;;;;;;35.33;18.83;;;;;;;1.35;67.25;62136.38;5026879;28;20206;-75
2022/03/15 06:52:06;;;;;;;29.70;16.63;;;;;;;1.31;67.32;62134.78;5026239;28;20229;-77
2022/03/15 06:54:33;;;;;;;41.90;17.38;;;;;;;1.45;66.86;62147.13;5027391;28;20202;-76
2022/03/15 06:56:59;;;;;;;35.67;17.35;;;;;;;1.26;66.50;62127.16;5027176;28;20227;-75
2022/03/15 06:59:26;;;;;;;40.35;18.42;;;;;;;1.41;66.71;62143.06;5025401;28;20203;-76
2022/03/15 07:01:53;;;;;;;47.25;19.42;;;;;;;1.66;67.28;62170.69;5025146;28;20226;-77
2022/03/15 07:04:20;;;;;;;41.28;19.73;;;;;;;1.60;66.67;62162.03;5017150;28;20411;-76
2022/03/15 07:06:49;;;;;;;31.95;16.25;;;;;;;1.54;66.23;62158.88;5021038;28;20234;-76
2022/03/15 07:09:16;;;;;;;24.75;15.52;;;;;;;1.34;67.38;62135.88;5024657;28;20207;-74
2022/03/15 07:11:43;;;;;;;24.58;14.65;;;;;;;1.34;66.37;62132.84;5027547;28;20242;-74
2022/03/15 07:14:09;;;;;;;32.60;15.88;;;;;;;1.55;66.45;62156.91;5031147;28;20207;-76
2022/03/15 07:16:36;;;;;;;32.42;15.93;;;;;;;1.76;66.90;62186.00;5032789;28;20210;-76
2022/03/15 07:19:04;;;;;;;30.88;16.80;;;;;;;1.78;65.82;62183.00;5028760;28;20202;-76
2022/03/15 07:21:31;;;;;;;33.35;18.50;;;;;;;1.97;66.29;62200.53;5022697;28;20210;-77
2022/03/15 07:24:00;;;;;;;35.88;18.08;;;;;;;2.14;65.83;62219.97;5030116;28;20547;-75
2022/03/15 07:26:26;;;;;;;32.25;17.27;;;;;;;2.26;64.32;62229.78;5029639;28;20447;-75
2022/03/15 07:29:04;;;;;;;32.17;18.83;;;;;;;2.38;65.53;62240.09;5035705;28;20546;-76
2022/03/15 07:31:44;;;;;;;42.65;19.42;;;;;;;2.56;63.99;62260.59;5034077;28;20199;-76
2022/03/15 07:34:13;;;;;;;34.63;17.95;;;;;;;2.59;64.38;62260.66;5035786;28;20219;-76
2022/03/15 07:36:43;;;;;;;42.95;20.88;;;;;;;2.56;64.32;62260.59;5030956;28;20214;-78
2022/03/15 07:39:14;;;;;;;31.60;18.60;;;;;;;2.64;63.14;62270.81;5026684;28;20226;-76
2022/03/15 07:41:43;;;;;;;35.75;19.67;;;;;;;2.54;63.51;62260.56;5016981;28;20258;-75
2022/03/15 07:44:10;;;;;;;32.63;17.95;;;;;;;2.67;63.65;62269.41;5015979;28;20198;-74
2022/03/15 07:46:37;;;;;;;29.98;19.33;;;;;;;2.79;63.61;62284.25;5023374;28;20214;-74
2022/03/15 07:49:04;;;;;;;31.08;18.67;;;;;;;2.74;63.26;62278.59;5022932;28;20202;-75
2022/03/15 07:51:31;;;;;;;31.10;18.40;;;;;;;3.00;62.64;62302.78;5025724;28;20241;-74
2022/03/15 07:53:59;;;;;;;35.15;18.95;;;;;;;2.93;60.83;62301.13;5024479;28;20207;-74
2022/03/15 07:56:27;;;;;;;40.03;18.98;;;;;;;2.75;62.10;62277.59;5024125;28;20452;-72
2022/03/15 07:58:53;;;;;;;30.33;19.23;;;;;;;2.80;61.99;62287.78;5024454;28;20840;-73
2022/03/15 08:01:20;;;;;;;33.47;18.90;;;;;;;3.04;61.78;62311.91;5024399;28;20195;-73
2022/03/15 08:03:48;;;;;;;43.72;20.60;;;;;;;3.23;59.87;62326.94;5014506;28;20351;-73
2022/03/15 08:06:15;;;;;;;32.30;19.25;;;;;;;3.28;59.98;62339.63;5033320;28;20273;-72
2022/03/15 08:08:42;;;;;;;29.02;18.05;;;;;;;3.32;59.76;62338.72;5031063;28;20235;-74
2022/03/15 08:11:09;;;;;;;38.85;19.25;;;;;;;3.47;58.53;62356.13;5026427;28;20202;-74
2022/03/15 08:13:37;;;;;;;34.95;19.33;;;;;;;3.58;58.04;62361.88;5022686;28;20242;-72
2022/03/15 08:16:05;;;;;;;28.30;18.27;;;;;;;3.61;57.86;62370.53;5024126;28;20213;-73
2022/03/15 08:18:33;;;;;;;33.45;18.52;;;;;;;3.44;58.30;62350.53;5024884;28;20424;-73
2022/03/15 08:21:00;;;;;;;42.30;18.08;;;;;;;3.61;59.44;62362.47;5024609;28;20234;-73
2022/03/15 08:23:27;;;;;;;35.35;17.63;;;;;;;3.82;57.69;62394.63;5023456;28;20222;-74
2022/03/15 08:25:58;;;;;;;28.67;16.90;;;;;;;3.83;56.74;62395.16;5024666;28;20203;-72
2022/03/15 08:28:26;;;;;;;27.45;15.38;;;;;;;3.94;56.39;62401.94;5023398;28;20256;-73
2022/03/15 08:30:55;;;;;;;30.15;16.05;;;;;;;4.22;55.87;62433.28;5024985;28;20266;-73
2022/03/15 08:33:23;;;;;;;23.45;14.30;;;;;;;4.29;54.45;62440.47;5024612;28;20257;-72
2022/03/15 08:35:50;;;;;;;22.67;14.10;;;;;;;4.51;54.29;62465.63;5022076;28;20229;-72
2022/03/15 08:38:16;;;;;;;21.42;12.55;;;;;;;4.69;53.66;62484.16;5024367;28;20215;-73
2022/03/15 08:40:43;;;;;;;23.42;12.95;;;;;;;4.95;53.76;62502.84;5025183;28;20198;-73
2022/03/15 08:43:11;;;;;;;21.20;13.40;;;;;;;5.19;52.03;62532.63;5024026;28;20418;-71
2022/03/15 08:45:39;;;;;;;28.45;13.38;;;;;;;5.26;51.75;62539.81;5025824;28;20270;-72
2022/03/15 08:48:08;;;;;;;28.90;13.77;;;;;;;5.28;51.60;62541.38;5025118;28;20239;-72
2022/03/15 08:50:35;;;;;;;20.65;12.85;;;;;;;5.30;50.79;62545.94;5024508;28;20206;-72
2022/03/15 08:53:02;;;;;;;28.65;13.95;;;;;;;5.28;52.53;62538.84;5022789;28;20256;-73
2022/03/15 08:55:30;;;;;;;25.30;14.70;;;;;;;5.56;53.03;62568.19;5024352;28;20214;-72
2022/03/15 08:57:57;;;;;;;26.70;14.32;;;;;;;5.77;51.64;62589.84;5024351;28;20215;-72
2022/03/15 09:00:24;;;;;;;26.05;14.27;;;;;;;5.97;51.22;62611.97;5024288;28;20195;-71
2022/03/15 09:02:51;;;;;;;27.10;14.35;;;;;;;6.05;51.88;62623.25;5022497;28;20222;-73
2022/03/15 09:05:20;;;;;;;24.75;14.27;;;;;;;6.17;50.17;62630.56;5022449;28;20376;-72
2022/03/15 09:07:49;;;;;;;29.65;14.85;;;;;;;6.19;49.95;62637.69;5019607;28;20242;-71
2022/03/15 09:10:16;;;;;;;23.30;13.82;;;;;;;6.23;49.84;62641.28;5012455;28;20210;-72
2022/03/15 09:12:43;;;;;;;26.77;15.20;;;;;;;6.08;49.69;62623.81;5022416;28;20218;-72
2022/03/15 09:15:10;;;;;;;26.48;14.93;;;;;;;6.22;49.86;62640.25;5022644;28;20417;-71
2022/03/15 09:17:37;;;;;;;27.15;15.57;;;;;;;6.42;49.10;62655.81;5023419;28;20245;-72
2022/03/15 09:20:05;;;;;;;25.15;13.43;;;;;;;6.49;48.41;62666.06;5022677;28;20191;-73
2022/03/15 09:22:33;;;;;;;26.20;14.10;;;;;;;6.49;47.89;62663.53;5018895;28;20233;-73
2022/03/15 09:25:00;;;;;;;20.08;14.32;;;;;;;6.58;47.12;62672.84;5021063;28;20253;-72
2022/03/15 09:27:26;;;;;;;27.88;15.15;;;;;;;6.55;47.40;62669.75;5017416;28;20264;-71
2022/03/15 09:29:54;;;;;;;28.08;14.52;;;;;;;6.49;48.01;62665.56;5023930;28;20199;-72
2022/03/15 09:32:21;;;;;;;22.88;14.57;;;;;;;6.46;48.20;62659.94;5022975;28;20415;-72
2022/03/15 09:34:48;;;;;;;26.48;14.65;;;;;;;6.61;48.43;62673.38;5021534;28;20209;-72
2022/03/15 09:37:15;;;;;;;32.45;15.23;;;;;;;6.95;47.61;62713.50;5022388;28;20218;-72
2022/03/15 09:39:43;;;;;;;26.73;14.68;;;;;;;7.22;45.53;62737.81;5023274;28;20456;-72
2022/03/15 09:42:11;;;;;;;22.23;14.23;;;;;;;7.41;45.40;62759.94;5024532;28;20218;-71
2022/03/15 09:44:40;;;;;;;26.70;14.27;;;;;;;7.67;45.81;62786.78;5025669;28;20206;-72
2022/03/15 09:47:09;;;;;;;18.33;11.85;;;;;;;7.62;43.00;62781.63;5024122;28;20218;-72
2022/03/15 09:49:36;;;;;;;21.17;13.95;;;;;;;7.47;43.52;62769.19;5023685;28;20317;-71
2022/03/15 09:52:06;;;;;;;25.08;13.35;;;;;;;7.58;43.07;62780.56;5023055;28;20219;-71
2022/03/15 09:54:33;;;;;;;23.25;14.07;;;;;;;7.51;43.93;62770.78;5020774;28;20269;-72
2022/03/15 09:57:04;;;;;;;24.77;14.60;;;;;;;7.69;45.23;62789.38;5022644;28;20401;-71
2022/03/15 09:59:31;;;;;;;21.65;14.38;;;;;;;7.82;43.98;62797.19;5021068;28;20206;-72
2022/03/15 10:01:59;;;;;;;23.27;15.65;;;;;;;7.85;43.60;62807.91;5022746;28;20313;-72
2022/03/15 10:04:27;;;;;;;26.67;16.42;;;;;;;7.89;43.46;62810.00;5022713;28;20266;-72
2022/03/15 10:06:55;;;;;;;32.40;15.95;;;;;;;8.01;43.57;62824.41;5022864;28;20226;-72
2022/03/15 10:09:23;;;;;;;29.98;16.55;;;;;;;8.11;43.39;62830.19;5020445;28;20228;-72
2022/03/15 10:11:52;;;;;;;32.95;15.70;;;;;;;8.30;43.26;62851.84;5022829;28;20569;-71
2022/03/15 10:14:21;;;;;;;28.55;15.27;;;;;;;8.43;43.55;62862.75;5021082;28;20203;-72
2022/03/15 10:16:50;;;;;;;25.27;15.13;;;;;;;8.49;43.33;62870.97;5022684;28;20601;-71
2022/03/15 10:19:17;;;;;;;26.83;15.85;;;;;;;8.54;42.91;62876.13;5023337;28;20206;-71
2022/03/15 10:21:49;;;;;;;29.27;16.65;;;;;;;8.64;42.75;62884.44;5021853;28;20543;-72
2022/03/15 10:24:22;;;;;;;31.35;15.90;;;;;;;8.66;42.18;62888.53;5021549;28;20293;-72
2022/03/15 10:26:51;;;;;;;28.33;16.63;;;;;;;8.65;42.83;62890.03;5022670;28;20218;-72
2022/03/15 10:29:21;;;;;;;25.48;16.55;;;;;;;8.79;43.09;62899.94;5022720;28;20245;-71
2022/03/15 10:31:48;;;;;;;31.38;16.40;;;;;;;9.01;42.75;62927.22;5020761;28;20252;-73
2022/03/15 10:34:17;;;;;;;29.42;15.73;;;;;;;8.85;40.53;62908.16;5022425;28;20203;-72
2022/03/15 10:36:45;;;;;;;35.72;15.35;;;;;;;9.00;39.86;62928.75;5003679;28;20227;-73
2022/03/15 10:39:14;;;;;;;27.70;15.13;;;;;;;9.14;40.07;62935.59;5020082;28;20211;-72
2022/03/15 10:41:48;;;;;;;24.65;15.32;;;;;;;9.35;39.75;62960.34;5030222;28;20451;-72
2022/03/15 10:44:22;;;;;;;38.80;16.77;;;;;;;9.47;39.44;62974.81;5028672;28;20221;-73
2022/03/15 10:47:05;;;;;;;29.20;16.17;;;;;;;9.45;38.49;62967.13;5024200;28;20245;-73
2022/03/15 10:49:33;;;;;;;28.23;15.23;;;;;;;9.61;38.45;62988.75;5027050;28;20547;-73
2022/03/15 10:52:00;;;;;;;31.25;15.65;;;;;;;9.50;37.86;62977.38;5023717;28;20429;-72
2022/03/15 10:54:28;;;;;;;38.47;16.38;;;;;;;9.38;38.85;62962.44;5022901;28;20415;-73
2022/03/15 10:56:57;;;;;;;33.60;18.58;;;;;;;9.60;38.13;62983.16;5019469;28;20261;-71
2022/03/15 10:59:25;;;;;;;25.75;17.75;;;;;;;9.76;38.49;63006.81;5023320;28;20199;-71
2022/03/15 11:01:53;;;;;;;30.52;16.63;;;;;;;9.75;37.08;63000.69;5022447;28;20453;-72
2022/03/15 11:04:23;;;;;;;27.15;17.23;;;;;;;9.90;37.86;63014.19;5019355;28;21139;-72
2022/03/15 11:06:51;;;;;;;25.63;14.90;;;;;;;10.19;36.43;63046.75;5019320;28;20222;-72
2022/03/15 11:09:21;;;;;;;24.08;14.23;;;;;;;10.21;33.88;63045.75;5021962;28;20545;-72
2022/03/15 11:11:52;;;;;;;20.80;12.02;;;;;;;9.97;32.31;63021.44;5022021;28;20415;-73
2022/03/15 11:14:40;;;;;;;16.52;10.20;;;;;;;9.81;31.40;63004.34;5022106;28;20427;-73
2022/03/15 11:17:10;;;;;;;22.02;11.82;;;;;;;10.08;32.69;63032.81;5024301;28;20244;-72
2022/03/15 11:19:41;;;;;;;13.57;9.13;;;;;;;10.34;31.65;63064.81;5023685;28;20207;-73
2022/03/15 11:22:09;;;;;;;17.00;9.52;;;;;;;10.45;30.08;63071.09;5025885;28;20265;-74
2022/03/15 11:24:42;;;;;;;14.43;8.35;;;;;;;10.77;30.17;63108.28;5026240;28;20195;-72
2022/03/15 11:27:13;;;;;;;18.00;7.75;;;;;;;10.96;28.82;63125.91;5020831;28;20222;-73
2022/03/15 11:29:43;;;;;;;12.75;7.72;;;;;;;11.16;28.43;63146.09;5025554;28;20234;-73
2022/03/15 11:32:13;;;;;;;12.38;7.95;;;;;;;10.99;28.24;63131.56;5021412;28;20237;-73